createdAt,value
2023-03-18T00:00:33.535Z,101007.98
2023-03-18T00:01:42.865Z,101014.95
2023-03-18T00:02:52.113Z,101014.94
2023-03-18T00:04:01.705Z,101015.41
2023-03-18T00:06:28.054Z,101011.64
2023-03-18T00:07:37.163Z,101015.41
2023-03-18T00:08:47.891Z,101017.31
2023-03-18T00:09:56.204Z,101013.59
2023-03-18T00:11:06.192Z,101018.38
2023-03-18T00:12:14.892Z,101021.19
2023-03-18T00:13:23.430Z,101022.03
2023-03-18T00:14:33.064Z,101025.45
2023-03-18T00:15:42.721Z,101022.70
2023-03-18T00:16:53.134Z,101018.16
2023-03-18T00:18:01.708Z,101017.71
2023-03-18T00:19:11.590Z,101013.25
2023-03-18T00:20:23.559Z,101009.44
2023-03-18T00:21:33.126Z,101013.45
2023-03-18T00:22:43.852Z,101013.91
2023-03-18T00:23:54.650Z,101009.59
2023-03-18T00:25:06.378Z,101011.19
2023-03-18T00:26:17.668Z,101017.77
2023-03-18T00:27:27.083Z,101007.78
2023-03-18T00:28:36.900Z,101018.42
2023-03-18T00:29:45.558Z,101010.28
2023-03-18T00:30:56.142Z,101011.19
2023-03-18T00:32:05.767Z,101012.95
2023-03-18T00:33:14.236Z,101014.03
2023-03-18T00:34:22.924Z,101010.73
2023-03-18T00:35:32.061Z,101006.92
2023-03-18T00:36:41.774Z,101008.48
2023-03-18T00:37:51.567Z,101011.29
2023-03-18T00:39:02.072Z,101014.81
2023-03-18T00:42:55.595Z,101014.77
2023-03-18T00:44:06.502Z,101019.37
2023-03-18T00:45:17.026Z,101019.17
2023-03-18T00:47:50.047Z,101013.45
2023-03-18T00:49:01.868Z,101015.70
2023-03-18T00:50:12.060Z,101015.56
2023-03-18T00:51:22.829Z,101018.12
2023-03-18T00:52:32.992Z,101013.64
2023-03-18T00:53:48.606Z,101019.17
2023-03-18T00:54:59.087Z,101018.37
2023-03-18T00:56:08.630Z,101014.86
2023-03-18T00:57:17.759Z,101012.20
2023-03-18T00:58:26.473Z,101016.87
2023-03-18T00:59:36.117Z,101013.34
2023-03-18T01:00:45.427Z,101022.33
2023-03-18T01:01:55.013Z,101021.58
2023-03-18T01:03:06.087Z,101023.42
2023-03-18T01:04:15.301Z,101024.19
2023-03-18T01:05:24.012Z,101023.80
2023-03-18T01:06:36.049Z,101025.95
2023-03-18T01:07:45.823Z,101028.61
2023-03-18T01:08:58.088Z,101030.36
2023-03-18T01:10:08.923Z,101026.61
2023-03-18T01:11:20.982Z,101030.03
2023-03-18T01:12:30.250Z,101031.70
2023-03-18T01:14:55.855Z,101032.51
2023-03-18T01:16:07.534Z,101038.29
2023-03-18T01:18:31.691Z,101031.64
2023-03-18T01:19:41.095Z,101042.66
2023-03-18T01:20:51.057Z,101041.94
2023-03-18T01:22:04.252Z,101044.45
2023-03-18T01:23:17.251Z,101037.16
2023-03-18T01:24:27.097Z,101045.91
2023-03-18T01:25:35.810Z,101033.38
2023-03-18T01:26:45.776Z,101034.33
2023-03-18T01:27:56.248Z,101036.76
2023-03-18T01:29:05.634Z,101037.94
2023-03-18T01:30:16.717Z,101038.97
2023-03-18T01:31:26.041Z,101046.90
2023-03-18T01:32:37.515Z,101040.51
2023-03-18T01:33:48.303Z,101046.04
2023-03-18T01:35:00.442Z,101044.83
2023-03-18T01:36:09.981Z,101048.78
2023-03-18T01:37:19.749Z,101040.64
2023-03-18T01:38:30.763Z,101047.89
2023-03-18T01:39:41.984Z,101048.14
2023-03-18T01:40:54.585Z,101049.86
2023-03-18T01:43:24.964Z,101049.64
2023-03-18T01:44:35.100Z,101058.56
2023-03-18T01:47:04.820Z,101048.83
2023-03-18T01:49:39.392Z,101051.35
2023-03-18T01:50:55.542Z,101051.48
2023-03-18T01:52:17.673Z,101054.05
2023-03-18T01:53:35.959Z,101054.09
2023-03-18T01:54:49.402Z,101053.50
2023-03-18T01:56:01.706Z,101053.50
2023-03-18T01:58:33.632Z,101058.52
2023-03-18T01:59:44.551Z,101070.08
2023-03-18T02:02:30.213Z,101057.44
2023-03-18T02:05:02.133Z,101062.46
2023-03-18T02:06:13.971Z,101059.71
2023-03-18T02:08:45.809Z,101058.64
2023-03-18T02:09:57.407Z,101060.79
2023-03-18T02:11:10.914Z,101061.39
2023-03-18T02:12:28.576Z,101065.93
2023-03-18T02:13:42.413Z,101069.31
2023-03-18T02:14:54.250Z,101060.27
2023-03-18T02:17:27.414Z,101063.09
2023-03-18T02:18:42.487Z,101072.83
2023-03-18T02:20:01.669Z,101082.52
2023-03-18T02:21:31.025Z,101071.41
2023-03-18T02:24:19.192Z,101067.22
2023-03-18T02:25:37.856Z,101071.03
2023-03-18T02:28:13.851Z,101077.63
2023-03-18T02:29:26.320Z,101081.66
2023-03-18T02:30:49.041Z,101078.91
2023-03-18T02:32:04.995Z,101072.83
2023-03-18T02:33:17.028Z,101069.27
2023-03-18T02:34:26.751Z,101075.19
2023-03-18T02:35:38.205Z,101076.17
2023-03-18T02:36:47.567Z,101076.13
2023-03-18T02:37:57.637Z,101077.06
2023-03-18T02:39:07.725Z,101076.04
2023-03-18T02:41:37.526Z,101069.19
2023-03-18T02:42:47.673Z,101077.28
2023-03-18T02:43:57.108Z,101081.62
2023-03-18T02:45:11.572Z,101079.73
2023-03-18T02:46:32.431Z,101075.66
2023-03-18T02:47:44.965Z,101082.48
2023-03-18T02:48:55.071Z,101078.11
2023-03-18T02:50:05.062Z,101082.69
2023-03-18T02:51:18.909Z,101078.06
2023-03-18T02:52:28.495Z,101078.84
2023-03-18T02:53:38.893Z,101085.73
2023-03-18T02:54:47.564Z,101079.38
2023-03-18T02:55:56.180Z,101084.70
2023-03-18T02:57:07.411Z,101082.17
2023-03-18T02:58:17.147Z,101084.41
2023-03-18T03:00:43.821Z,101075.19
2023-03-18T03:01:54.140Z,101077.16
2023-03-18T03:03:04.053Z,101088.56
2023-03-18T03:04:15.516Z,101077.84
2023-03-18T03:05:24.147Z,101082.94
2023-03-18T03:06:36.257Z,101084.79
2023-03-18T03:07:44.983Z,101087.31
2023-03-18T03:08:55.536Z,101082.77
2023-03-18T03:10:07.885Z,101087.22
2023-03-18T03:11:17.121Z,101078.56
2023-03-18T03:12:27.602Z,101074.20
2023-03-18T03:13:40.731Z,101082.03
2023-03-18T03:14:52.170Z,101089.84
2023-03-18T03:16:02.478Z,101083.41
2023-03-18T03:17:12.362Z,101088.80
2023-03-18T03:18:22.945Z,101082.45
2023-03-18T03:19:33.577Z,101087.98
2023-03-18T03:20:45.150Z,101085.28
2023-03-18T03:21:54.798Z,101086.95
2023-03-18T03:23:07.778Z,101093.22
2023-03-18T03:24:16.528Z,101093.17
2023-03-18T03:25:28.994Z,101088.67
2023-03-18T03:26:38.461Z,101089.53
2023-03-18T03:27:49.108Z,101096.64
2023-03-18T03:29:00.116Z,101088.72
2023-03-18T03:30:12.398Z,101089.57
2023-03-18T03:31:22.592Z,101097.90
2023-03-18T03:32:33.710Z,101097.17
2023-03-18T03:33:44.286Z,101095.42
2023-03-18T03:34:53.849Z,101093.61
2023-03-18T03:36:03.741Z,101099.66
2023-03-18T03:37:13.494Z,101095.11
2023-03-18T03:38:22.732Z,101096.70
2023-03-18T03:39:33.215Z,101089.44
2023-03-18T03:40:44.363Z,101091.95
2023-03-18T03:41:54.203Z,101094.71
2023-03-18T03:43:03.447Z,101103.64
2023-03-18T03:44:12.922Z,101101.91
2023-03-18T03:45:23.400Z,101104.72
2023-03-18T03:47:48.752Z,101104.58
2023-03-18T03:48:58.645Z,101108.22
2023-03-18T03:50:10.455Z,101111.16
2023-03-18T03:51:21.308Z,101110.38
2023-03-18T03:52:31.090Z,101109.44
2023-03-18T03:53:40.744Z,101108.80
2023-03-18T03:54:51.413Z,101108.67
2023-03-18T03:56:00.443Z,101104.42
2023-03-18T03:57:09.536Z,101112.27
2023-03-18T03:58:19.426Z,101112.01
2023-03-18T03:59:28.832Z,101110.98
2023-03-18T04:00:40.906Z,101111.74
2023-03-18T04:03:07.354Z,101109.89
2023-03-18T04:04:16.948Z,101102.19
2023-03-18T04:05:26.921Z,101113.59
2023-03-18T04:06:37.595Z,101106.66
2023-03-18T04:07:48.172Z,101104.42
2023-03-18T04:10:21.309Z,101102.31
2023-03-18T04:12:46.842Z,101104.93
2023-03-18T04:13:57.003Z,101110.47
2023-03-18T04:16:25.316Z,101104.67
2023-03-18T04:17:35.457Z,101113.72
2023-03-18T04:18:45.923Z,101115.44
2023-03-18T04:19:55.092Z,101116.69
2023-03-18T04:21:05.416Z,101112.22
2023-03-18T04:22:18.837Z,101111.41
2023-03-18T04:23:28.558Z,101116.08
2023-03-18T04:24:38.389Z,101110.89
2023-03-18T04:25:50.400Z,101116.81
2023-03-18T04:26:59.528Z,101113.67
2023-03-18T04:28:09.649Z,101115.95
2023-03-18T04:29:18.968Z,101114.41
2023-03-18T04:30:28.146Z,101116.94
2023-03-18T04:31:40.707Z,101114.23
2023-03-18T04:32:49.964Z,101111.62
2023-03-18T04:33:59.946Z,101117.75
2023-03-18T04:35:11.067Z,101108.11
2023-03-18T04:36:20.626Z,101107.13
2023-03-18T04:37:29.397Z,101110.51
2023-03-18T04:38:39.469Z,101112.44
2023-03-18T04:39:50.490Z,101115.05
2023-03-18T04:40:59.363Z,101116.77
2023-03-18T04:42:08.030Z,101111.91
2023-03-18T04:43:16.912Z,101111.63
2023-03-18T04:44:28.409Z,101111.80
2023-03-18T04:45:37.756Z,101123.24
2023-03-18T04:46:48.005Z,101120.38
2023-03-18T04:47:58.671Z,101107.97
2023-03-18T04:49:09.152Z,101107.84
2023-03-18T04:51:33.894Z,101111.61
2023-03-18T04:52:45.170Z,101120.80
2023-03-18T04:53:55.752Z,101117.06
2023-03-18T04:55:07.390Z,101121.34
2023-03-18T04:57:37.420Z,101115.98
2023-03-18T04:58:46.671Z,101115.27
2023-03-18T05:00:01.612Z,101125.17
2023-03-18T05:01:12.594Z,101126.03
2023-03-18T05:02:21.839Z,101114.93
2023-03-18T05:03:32.121Z,101119.34
2023-03-18T05:04:41.946Z,101132.67
2023-03-18T05:05:51.037Z,101125.41
2023-03-18T05:07:01.770Z,101131.30
2023-03-18T05:08:12.877Z,101120.53
2023-03-18T05:09:22.019Z,101127.41
2023-03-18T05:10:31.501Z,101130.92
2023-03-18T05:11:40.242Z,101124.48
2023-03-18T05:12:51.301Z,101121.52
2023-03-18T05:14:02.347Z,101131.30
2023-03-18T05:15:13.876Z,101138.08
2023-03-18T05:16:25.995Z,101138.84
2023-03-18T05:17:35.434Z,101134.17
2023-03-18T05:18:46.481Z,101131.34
2023-03-18T05:19:55.547Z,101136.06
2023-03-18T05:21:07.542Z,101131.43
2023-03-18T05:22:20.401Z,101127.92
2023-03-18T05:23:30.481Z,101137.77
2023-03-18T05:24:40.443Z,101136.97
2023-03-18T05:25:52.089Z,101131.47
2023-03-18T05:27:02.068Z,101136.66
2023-03-18T05:28:14.651Z,101137.39
2023-03-18T05:29:26.428Z,101132.88
2023-03-18T05:30:40.534Z,101131.05
2023-03-18T05:31:50.965Z,101144.08
2023-03-18T05:33:01.298Z,101143.59
2023-03-18T05:34:12.903Z,101139.83
2023-03-18T05:36:39.985Z,101129.45
2023-03-18T05:37:50.023Z,101134.91
2023-03-18T05:38:59.921Z,101127.19
2023-03-18T05:41:27.700Z,101127.74
2023-03-18T05:42:49.402Z,101129.67
2023-03-18T05:43:48.791Z,101134.47
2023-03-18T05:44:59.099Z,101134.99
2023-03-18T05:46:09.055Z,101132.20
2023-03-18T05:47:37.699Z,101134.43
2023-03-18T05:48:54.544Z,101137.56
2023-03-18T05:50:04.573Z,101132.50
2023-03-18T05:52:31.141Z,101133.56
2023-03-18T05:54:56.801Z,101140.45
2023-03-18T05:57:23.699Z,101143.12
2023-03-18T05:58:33.910Z,101149.05
2023-03-18T06:00:01.784Z,101144.72
2023-03-18T06:01:13.736Z,101148.79
2023-03-18T06:02:24.123Z,101150.38
2023-03-18T06:04:49.247Z,101143.80
2023-03-18T06:05:59.402Z,101150.16
2023-03-18T06:07:11.047Z,101156.91
2023-03-18T06:08:21.106Z,101160.38
2023-03-18T06:09:30.388Z,101163.72
2023-03-18T06:10:40.934Z,101152.95
2023-03-18T06:11:50.282Z,101165.65
2023-03-18T06:13:00.186Z,101163.77
2023-03-18T06:14:09.897Z,101167.16
2023-03-18T06:15:18.923Z,101167.02
2023-03-18T06:16:28.674Z,101152.81
2023-03-18T06:17:38.304Z,101168.00
2023-03-18T06:18:47.287Z,101162.48
2023-03-18T06:19:58.738Z,101173.48
2023-03-18T06:21:09.788Z,101168.73
2023-03-18T06:22:18.700Z,101163.42
2023-03-18T06:23:28.309Z,101161.73
2023-03-18T06:24:37.377Z,101170.70
2023-03-18T06:25:47.287Z,101169.59
2023-03-18T06:28:14.227Z,101164.36
2023-03-18T06:29:24.242Z,101168.73
2023-03-18T06:30:34.840Z,101165.18
2023-03-18T06:31:44.943Z,101194.21
2023-03-18T06:32:57.762Z,101165.61
2023-03-18T06:34:08.429Z,101166.29
2023-03-18T06:35:18.686Z,101175.42
2023-03-18T06:36:27.475Z,101170.62
2023-03-18T06:37:38.318Z,101174.91
2023-03-18T06:38:48.228Z,101189.16
2023-03-18T06:41:14.287Z,101168.51
2023-03-18T06:42:26.290Z,101183.11
2023-03-18T06:43:37.629Z,101178.78
2023-03-18T06:46:05.646Z,101184.56
2023-03-18T06:47:15.903Z,101187.59
2023-03-18T06:48:28.544Z,101183.95
2023-03-18T06:49:38.071Z,101186.37
2023-03-18T06:50:50.396Z,101180.88
2023-03-18T06:52:02.227Z,101199.45
2023-03-18T06:53:12.723Z,101186.20
2023-03-18T06:54:21.704Z,101183.01
2023-03-18T06:55:32.287Z,101174.66
2023-03-18T06:56:44.278Z,101179.33
2023-03-18T06:57:56.682Z,101180.06
2023-03-18T06:59:09.640Z,101179.81
2023-03-18T07:01:37.704Z,101186.48
2023-03-18T07:02:47.478Z,101197.09
2023-03-18T07:03:58.528Z,101190.09
2023-03-18T07:05:09.852Z,101200.64
2023-03-18T07:06:20.652Z,101187.67
2023-03-18T07:07:30.208Z,101192.58
2023-03-18T07:08:39.119Z,101193.77
2023-03-18T07:09:47.725Z,101189.72
2023-03-18T07:10:57.777Z,101189.55
2023-03-18T07:13:25.508Z,101196.99
2023-03-18T07:15:51.008Z,101190.56
2023-03-18T07:17:00.535Z,101185.47
2023-03-18T07:18:12.072Z,101196.27
2023-03-18T07:19:22.522Z,101195.11
2023-03-18T07:20:32.032Z,101202.40
2023-03-18T07:21:42.502Z,101209.19
2023-03-18T07:22:52.503Z,101183.06
2023-03-18T07:24:04.230Z,101178.59
2023-03-18T07:25:13.527Z,101194.47
2023-03-18T07:26:23.685Z,101187.70
2023-03-18T07:27:33.127Z,101178.13
2023-03-18T07:28:43.507Z,101184.78
2023-03-18T07:31:09.157Z,101178.69
2023-03-18T07:32:19.154Z,101186.81
2023-03-18T07:34:43.061Z,101175.75
2023-03-18T07:35:51.939Z,101181.03
2023-03-18T07:37:01.968Z,101183.20
2023-03-18T07:38:11.336Z,101192.31
2023-03-18T07:39:20.677Z,101191.01
2023-03-18T07:40:29.228Z,101182.08
2023-03-18T07:41:38.408Z,101183.07
2023-03-18T07:42:48.241Z,101183.64
2023-03-18T07:43:57.719Z,101183.55
2023-03-18T07:46:24.041Z,101176.66
2023-03-18T07:48:50.919Z,101185.87
2023-03-18T07:49:59.672Z,101175.22
2023-03-18T07:51:08.403Z,101178.49
2023-03-18T07:52:19.106Z,101182.93
2023-03-18T07:53:29.053Z,101178.35
2023-03-18T07:55:53.816Z,101178.81
2023-03-18T07:57:04.124Z,101183.42
2023-03-18T07:58:13.115Z,101194.73
2023-03-18T08:00:38.064Z,101177.00
2023-03-18T08:01:47.440Z,101175.98
2023-03-18T08:02:56.254Z,101173.18
2023-03-18T08:04:05.553Z,101177.86
2023-03-18T08:05:15.796Z,101181.91
2023-03-18T08:06:25.161Z,101175.08
2023-03-18T08:07:36.140Z,101173.83
2023-03-18T08:10:00.994Z,101166.58
2023-03-18T08:11:14.494Z,101178.20
2023-03-18T08:12:23.746Z,101174.14
2023-03-18T08:13:32.401Z,101176.78
2023-03-18T08:14:43.343Z,101174.88
2023-03-18T08:15:52.405Z,101180.11
2023-03-18T08:17:03.097Z,101176.73
2023-03-18T08:19:28.816Z,101179.64
2023-03-18T08:20:38.114Z,101173.83
2023-03-18T08:21:48.357Z,101172.91
2023-03-18T08:22:57.310Z,101183.84
2023-03-18T08:24:07.420Z,101174.78
2023-03-18T08:25:17.263Z,101174.62
2023-03-18T08:27:41.849Z,101187.05
2023-03-18T08:28:50.410Z,101182.13
2023-03-18T08:30:01.638Z,101188.20
2023-03-18T08:31:11.220Z,101181.06
2023-03-18T08:32:21.504Z,101190.57
2023-03-18T08:33:31.117Z,101197.75
2023-03-18T08:34:40.141Z,101186.95
2023-03-18T08:35:49.660Z,101192.13
2023-03-18T08:36:58.987Z,101189.16
2023-03-18T08:38:07.574Z,101192.72
2023-03-18T08:39:16.684Z,101190.22
2023-03-18T08:41:41.432Z,101179.05
2023-03-18T08:42:50.019Z,101184.94
2023-03-18T08:44:00.295Z,101186.34
2023-03-18T08:46:27.363Z,101192.00
2023-03-18T08:47:35.928Z,101193.91
2023-03-18T08:48:44.925Z,101188.47
2023-03-18T08:49:54.162Z,101186.59
2023-03-18T08:51:07.539Z,101202.44
2023-03-18T08:52:17.392Z,101196.19
2023-03-18T08:53:26.788Z,101192.95
2023-03-18T08:54:35.987Z,101193.13
2023-03-18T08:55:47.732Z,101189.39
2023-03-18T08:58:11.531Z,101198.02
2023-03-18T08:59:21.815Z,101201.72
2023-03-18T09:00:33.126Z,101190.51
2023-03-18T09:01:41.730Z,101195.50
2023-03-18T09:02:52.676Z,101188.48
2023-03-18T09:04:02.241Z,101197.86
2023-03-18T09:05:11.287Z,101193.37
2023-03-18T09:06:20.445Z,101191.01
2023-03-18T09:07:30.471Z,101186.73
2023-03-18T09:08:39.283Z,101184.83
2023-03-18T09:09:48.863Z,101186.20
2023-03-18T09:12:14.437Z,101174.42
2023-03-18T09:13:24.641Z,101191.67
2023-03-18T09:14:33.968Z,101189.56
2023-03-18T09:15:42.500Z,101180.06
2023-03-18T09:16:52.193Z,101188.64
2023-03-18T09:18:11.385Z,101202.41
2023-03-18T09:19:12.396Z,101196.99
2023-03-18T09:20:21.718Z,101194.23
2023-03-18T09:21:31.178Z,101191.77
2023-03-18T09:22:44.796Z,101195.08
2023-03-18T09:25:09.382Z,101180.45
2023-03-18T09:26:19.572Z,101185.18
2023-03-18T09:27:28.811Z,101184.84
2023-03-18T09:28:39.125Z,101183.88
2023-03-18T09:29:48.314Z,101182.83
2023-03-18T09:30:57.053Z,101192.58
2023-03-18T09:33:22.024Z,101175.09
2023-03-18T09:34:31.185Z,101182.36
2023-03-18T09:36:58.502Z,101187.41
2023-03-18T09:38:07.538Z,101188.52
2023-03-18T09:40:38.676Z,101183.14
2023-03-18T09:42:01.384Z,101190.29
2023-03-18T09:43:47.543Z,101171.66
2023-03-18T09:45:00.567Z,101182.23
2023-03-18T09:47:57.218Z,101181.40
2023-03-18T09:49:18.935Z,101184.31
2023-03-18T09:50:41.162Z,101179.05
2023-03-18T09:53:48.457Z,101173.97
2023-03-18T09:56:33.749Z,101171.89
2023-03-18T09:57:46.905Z,101172.16
2023-03-18T09:59:18.295Z,101173.65
2023-03-18T10:00:38.621Z,101165.42
2023-03-18T10:03:40.329Z,101159.12
2023-03-18T10:08:17.214Z,101161.96
2023-03-18T10:09:29.616Z,101178.36
2023-03-18T10:12:07.931Z,101156.75
2023-03-18T10:16:22.552Z,101161.85
2023-03-18T10:17:38.223Z,101162.70
2023-03-18T10:18:48.046Z,101153.41
2023-03-18T10:21:46.098Z,101163.22
2023-03-18T10:23:01.576Z,101169.47
2023-03-18T10:25:49.711Z,101163.55
2023-03-18T10:27:20.443Z,101160.34
2023-03-18T10:28:45.593Z,101157.48
2023-03-18T10:32:00.378Z,101152.41
2023-03-18T10:33:26.067Z,101163.16
2023-03-18T10:35:04.136Z,101162.77
2023-03-18T10:36:16.852Z,101164.25
2023-03-18T10:39:01.976Z,101158.31
2023-03-18T10:40:17.598Z,101163.03
2023-03-18T10:42:53.745Z,101140.84
2023-03-18T10:45:27.802Z,101141.47
2023-03-18T10:46:38.286Z,101143.45
2023-03-18T10:49:17.033Z,101138.95
2023-03-18T10:50:35.386Z,101144.67
2023-03-18T10:53:48.702Z,101146.38
2023-03-18T10:54:58.225Z,101141.81
2023-03-18T10:56:09.817Z,101145.94
2023-03-18T10:57:21.028Z,101147.58
2023-03-18T10:58:29.801Z,101140.72
2023-03-18T10:59:40.490Z,101146.98
2023-03-18T11:00:50.603Z,101142.30
2023-03-18T11:04:56.236Z,101143.10
2023-03-18T11:07:26.733Z,101140.55
2023-03-18T11:08:40.606Z,101147.89
2023-03-18T11:11:35.737Z,101145.14
2023-03-18T11:14:01.418Z,101147.41
2023-03-18T11:15:12.400Z,101152.06
2023-03-18T11:16:30.559Z,101140.92
2023-03-18T11:17:40.424Z,101137.50
2023-03-18T11:18:53.035Z,101141.70
2023-03-18T11:21:28.816Z,101132.95
2023-03-18T11:24:14.245Z,101128.72
2023-03-18T11:25:26.375Z,101131.53
2023-03-18T11:28:05.642Z,101137.11
2023-03-18T11:30:50.639Z,101126.70
2023-03-18T11:32:00.999Z,101132.88
2023-03-18T11:34:35.581Z,101126.84
2023-03-18T11:37:21.043Z,101112.78
2023-03-18T11:38:35.122Z,101110.63
2023-03-18T11:39:44.621Z,101110.63
2023-03-18T11:43:36.607Z,101113.87
2023-03-18T11:44:46.589Z,101122.08
2023-03-18T11:47:24.070Z,101113.45
2023-03-18T11:48:40.747Z,101106.61
2023-03-18T11:49:49.391Z,101109.03
2023-03-18T11:52:53.112Z,101099.30
2023-03-18T11:54:33.326Z,101112.44
2023-03-18T11:58:01.623Z,101108.67
2023-03-18T12:00:52.296Z,101102.70
2023-03-18T12:02:14.466Z,101110.62
2023-03-18T12:05:30.395Z,101089.77
2023-03-18T12:08:18.451Z,101103.20
2023-03-18T12:12:18.740Z,101084.24
2023-03-18T12:16:52.668Z,101088.26
2023-03-18T12:18:23.310Z,101090.45
2023-03-18T12:19:35.920Z,101084.61
2023-03-18T12:20:51.844Z,101086.30
2023-03-18T12:22:30.273Z,101097.68
2023-03-18T12:24:05.057Z,101083.55
2023-03-18T12:25:22.068Z,101089.59
2023-03-18T12:26:58.860Z,101078.89
2023-03-18T12:29:55.346Z,101090.59
2023-03-18T12:31:31.534Z,101082.84
2023-03-18T12:32:43.880Z,101079.10
2023-03-18T12:33:58.306Z,101068.19
2023-03-18T12:35:30.785Z,101078.00
2023-03-18T12:36:48.072Z,101069.05
2023-03-18T12:38:21.363Z,101074.02
2023-03-18T12:40:07.824Z,101082.77
2023-03-18T12:41:40.511Z,101071.34
2023-03-18T12:42:56.416Z,101065.86
2023-03-18T12:45:38.811Z,101053.08
2023-03-18T12:46:51.128Z,101064.03
2023-03-18T12:48:05.026Z,101059.50
2023-03-18T12:50:46.965Z,101065.45
2023-03-18T12:53:48.495Z,101065.10
2023-03-18T12:55:29.744Z,101063.50
2023-03-18T12:56:52.235Z,101056.06
2023-03-18T13:01:11.697Z,101059.48
2023-03-18T13:02:27.013Z,101062.34
2023-03-18T13:03:41.570Z,101056.31
2023-03-18T13:07:50.566Z,101052.17
2023-03-18T13:09:20.594Z,101055.92
2023-03-18T13:10:34.376Z,101054.70
2023-03-18T13:11:53.659Z,101053.70
2023-03-18T13:14:59.461Z,101040.58
2023-03-18T13:16:09.350Z,101047.16
2023-03-18T13:17:24.736Z,101047.88
2023-03-18T13:19:53.239Z,101038.94
2023-03-18T13:21:14.463Z,101047.31
2023-03-18T13:22:26.957Z,101036.94
2023-03-18T13:42:30.217Z,101026.17
2023-03-18T13:43:42.786Z,101028.30
2023-03-18T13:46:24.116Z,101034.14
2023-03-18T13:47:37.356Z,101037.25
2023-03-18T13:48:47.684Z,101035.38
2023-03-18T13:50:05.545Z,101035.17
2023-03-18T13:51:21.360Z,101033.01
2023-03-18T13:54:06.151Z,101028.50
2023-03-18T13:55:37.066Z,101029.66
2023-03-18T13:56:58.777Z,101023.30
2023-03-18T13:58:22.904Z,101029.21
2023-03-18T13:59:38.097Z,101022.77
2023-03-18T14:01:15.704Z,101027.42
2023-03-18T14:02:30.803Z,101023.64
2023-03-18T14:03:48.349Z,101028.77
2023-03-18T14:05:00.251Z,101034.28
2023-03-18T14:06:14.533Z,101022.79
2023-03-18T14:07:24.380Z,101027.33
2023-03-18T14:08:43.684Z,101034.21
2023-03-18T14:10:15.249Z,101041.09
2023-03-18T14:12:39.780Z,101022.48
2023-03-18T14:13:54.359Z,101030.75
2023-03-18T14:15:12.824Z,101034.59
2023-03-18T14:16:31.898Z,101029.94
2023-03-18T14:17:47.686Z,101027.92
2023-03-18T14:18:58.517Z,101025.09
2023-03-18T14:20:18.113Z,101025.62
2023-03-18T14:21:31.611Z,101020.11
2023-03-18T14:22:42.108Z,101026.33
2023-03-18T14:27:05.346Z,101027.14
2023-03-18T14:28:20.274Z,101028.27
2023-03-18T14:29:36.075Z,101030.16
2023-03-18T14:31:01.084Z,101024.66
2023-03-18T14:32:38.030Z,101028.00
2023-03-18T14:35:29.477Z,101028.45
2023-03-18T14:36:54.324Z,101030.66
2023-03-18T14:38:13.246Z,101026.36
2023-03-18T14:39:34.238Z,101030.97
2023-03-18T14:40:47.248Z,101031.38
2023-03-18T14:43:30.898Z,101027.75
2023-03-18T14:44:43.895Z,101029.68
2023-03-18T14:45:59.646Z,101028.62
2023-03-18T14:47:38.666Z,101028.00
2023-03-18T14:48:41.220Z,101033.58
2023-03-18T14:50:04.750Z,101027.44
2023-03-18T14:51:22.198Z,101021.86
2023-03-18T14:54:09.340Z,101019.23
2023-03-18T14:55:22.787Z,101018.82
2023-03-18T14:56:36.422Z,101018.11
2023-03-18T14:57:46.997Z,101021.50
2023-03-18T14:58:56.398Z,101010.79
2023-03-18T15:00:07.888Z,101013.61
2023-03-18T15:01:17.185Z,101017.03
2023-03-18T15:02:37.306Z,101010.08
2023-03-18T15:05:07.273Z,101009.22
2023-03-18T15:06:19.987Z,101013.05
2023-03-18T15:07:38.611Z,101007.70
2023-03-18T15:09:06.178Z,101008.44
2023-03-18T15:10:20.411Z,101011.90
2023-03-18T15:11:31.786Z,101000.33
2023-03-18T15:12:40.896Z,101002.12
2023-03-18T15:15:18.107Z,101009.47
2023-03-18T15:16:30.169Z,101018.19
2023-03-18T15:17:39.808Z,101011.05
2023-03-18T15:20:12.782Z,101003.80
2023-03-18T15:21:25.095Z,101020.16
2023-03-18T15:22:35.570Z,101019.16
2023-03-18T15:23:53.378Z,101023.55
2023-03-18T15:25:04.985Z,101018.19
2023-03-18T15:26:23.916Z,101025.06
2023-03-18T15:27:35.061Z,101017.03
2023-03-18T15:28:46.301Z,101023.61
2023-03-18T15:29:58.992Z,101018.66
2023-03-18T15:31:10.760Z,101018.59
2023-03-18T15:32:26.059Z,101020.27
2023-03-18T15:33:38.509Z,101016.77
2023-03-18T15:35:12.873Z,101021.19
2023-03-18T15:36:25.168Z,101015.69
2023-03-18T15:37:40.502Z,101017.59
2023-03-18T15:38:51.766Z,101022.20
2023-03-18T15:41:53.495Z,101010.30
2023-03-18T15:44:30.872Z,101012.16
2023-03-18T15:45:49.846Z,101017.98
2023-03-18T15:48:56.664Z,101014.31
2023-03-18T15:50:21.076Z,101020.02
2023-03-18T15:51:34.623Z,101026.48
2023-03-18T15:52:43.299Z,101020.14
2023-03-18T15:55:30.027Z,101024.09
2023-03-18T15:58:06.469Z,101026.02
2023-03-18T15:59:21.726Z,101023.70
2023-03-18T16:00:33.898Z,101028.05
2023-03-18T16:01:42.748Z,101025.17
2023-03-18T16:02:53.643Z,101033.41
2023-03-18T16:04:09.856Z,101036.19
2023-03-18T16:05:26.278Z,101029.20
2023-03-18T16:06:35.803Z,101028.27
2023-03-18T16:07:46.068Z,101028.16
2023-03-18T16:08:55.797Z,101027.16
2023-03-18T16:10:05.054Z,101031.59
2023-03-18T16:11:15.369Z,101028.70
2023-03-18T16:12:26.902Z,101025.91
2023-03-18T16:13:37.016Z,101029.45
2023-03-18T16:14:48.976Z,101031.27
2023-03-18T16:15:57.713Z,101026.77
2023-03-18T16:17:07.009Z,101028.52
2023-03-18T16:18:18.505Z,101031.98
2023-03-18T16:19:28.567Z,101036.63
2023-03-18T16:20:37.273Z,101032.34
2023-03-18T16:23:01.095Z,101023.34
2023-03-18T16:24:10.626Z,101024.63
2023-03-18T16:25:20.054Z,101033.69
2023-03-18T16:26:29.078Z,101034.41
2023-03-18T16:28:55.884Z,101031.13
2023-03-18T16:31:41.068Z,101028.66
2023-03-18T16:32:51.320Z,101032.66
2023-03-18T16:34:00.379Z,101028.27
2023-03-18T16:36:34.211Z,101022.48
2023-03-18T16:37:44.936Z,101033.69
2023-03-18T16:38:54.038Z,101030.30
2023-03-18T16:40:02.818Z,101030.23
2023-03-18T16:42:28.822Z,101031.73
2023-03-18T16:43:38.593Z,101029.69
2023-03-18T16:44:47.409Z,101022.66
2023-03-18T16:47:26.732Z,101022.48
2023-03-18T16:48:35.333Z,101026.00
2023-03-18T16:49:44.984Z,101026.16
2023-03-18T16:50:53.729Z,101028.41
2023-03-18T16:52:03.656Z,101029.03
2023-03-18T16:54:57.858Z,101019.19
2023-03-18T16:56:16.382Z,101019.77
2023-03-18T16:57:25.166Z,101025.11
2023-03-18T16:58:36.816Z,101040.16
2023-03-18T16:59:50.178Z,101012.87
2023-03-18T17:00:59.943Z,101028.67
2023-03-18T17:03:29.672Z,101024.19
2023-03-18T17:05:54.351Z,101022.14
2023-03-18T17:07:04.810Z,101025.72
2023-03-18T17:08:14.071Z,101028.01
2023-03-18T17:09:26.042Z,101028.71
2023-03-18T17:10:37.182Z,101031.95